createdAt,value
2017-08-06T00:00:34.618Z,1005.33
2017-08-06T00:01:34.620Z,1005.35
2017-08-06T00:02:34.590Z,1005.38
2017-08-06T00:03:34.592Z,1005.39
2017-08-06T00:04:34.937Z,1005.39
2017-08-06T00:05:34.580Z,1005.41
2017-08-06T00:06:34.563Z,1005.40
2017-08-06T00:07:34.554Z,1005.43
2017-08-06T00:08:34.545Z,1005.43
2017-08-06T00:09:34.539Z,1005.43
2017-08-06T00:10:34.817Z,1005.45
2017-08-06T00:11:34.517Z,1005.46
2017-08-06T00:12:34.512Z,1005.46
2017-08-06T00:13:34.491Z,1005.49
2017-08-06T00:14:34.495Z,1005.52
2017-08-06T00:15:34.480Z,1005.52
2017-08-06T00:16:34.924Z,1005.54
2017-08-06T00:17:34.456Z,1005.56
2017-08-06T00:18:34.445Z,1005.56
2017-08-06T00:19:34.440Z,1005.52
2017-08-06T00:20:34.449Z,1005.55
2017-08-06T00:21:34.418Z,1005.58
2017-08-06T00:22:34.885Z,1005.55
2017-08-06T00:23:34.400Z,1005.54
2017-08-06T00:24:34.392Z,1005.59
2017-08-06T00:25:34.396Z,1005.55
2017-08-06T00:26:34.383Z,1005.52
2017-08-06T00:27:34.382Z,1005.54
2017-08-06T00:28:34.384Z,1005.56
2017-08-06T00:29:34.344Z,1005.57
2017-08-06T00:30:34.347Z,1005.56
2017-08-06T00:31:34.339Z,1005.55
2017-08-06T00:32:34.774Z,1005.58
2017-08-06T00:33:34.322Z,1005.58
2017-08-06T00:34:34.312Z,1005.56
2017-08-06T00:35:34.292Z,1005.61
2017-08-06T00:36:34.300Z,1005.62
2017-08-06T00:37:34.271Z,1005.63
2017-08-06T00:38:34.318Z,1005.69
2017-08-06T00:39:34.268Z,1005.71
2017-08-06T00:40:34.245Z,1005.71
2017-08-06T00:41:34.241Z,1005.72
2017-08-06T00:42:34.697Z,1005.70
2017-08-06T00:43:34.237Z,1005.71
2017-08-06T00:44:34.221Z,1005.74
2017-08-06T00:45:34.201Z,1005.77
2017-08-06T00:46:34.201Z,1005.76
2017-08-06T00:47:34.193Z,1005.75
2017-08-06T00:48:34.212Z,1005.73
2017-08-06T00:49:34.176Z,1005.73
2017-08-06T00:50:34.174Z,1005.72
2017-08-06T00:51:34.157Z,1005.74
2017-08-06T00:52:34.453Z,1005.77
2017-08-06T00:53:34.129Z,1005.77
2017-08-06T00:54:34.119Z,1005.78
2017-08-06T00:55:34.119Z,1005.80
2017-08-06T00:56:34.103Z,1005.78
2017-08-06T00:57:34.106Z,1005.80
2017-08-06T00:58:34.555Z,1005.84
2017-08-06T00:59:34.102Z,1005.80
2017-08-06T01:00:34.085Z,1005.77
2017-08-06T01:01:34.055Z,1005.82
2017-08-06T01:02:34.047Z,1005.84
2017-08-06T01:03:34.038Z,1005.84
2017-08-06T01:04:34.087Z,1005.87
2017-08-06T01:05:34.017Z,1005.88
2017-08-06T01:06:34.014Z,1005.86
2017-08-06T01:07:34.016Z,1005.86
2017-08-06T01:08:34.372Z,1005.85
2017-08-06T01:09:33.982Z,1005.88
2017-08-06T01:10:33.971Z,1005.88
2017-08-06T01:11:33.977Z,1005.90
2017-08-06T01:12:33.967Z,1005.89
2017-08-06T01:13:33.965Z,1005.93
2017-08-06T01:14:34.313Z,1005.91
2017-08-06T01:15:33.939Z,1005.92
2017-08-06T01:16:33.937Z,1005.91
2017-08-06T01:17:33.910Z,1005.91
2017-08-06T01:18:33.919Z,1005.91
2017-08-06T01:19:33.903Z,1005.91
2017-08-06T01:20:34.237Z,1005.89
2017-08-06T01:21:33.885Z,1005.92
2017-08-06T01:22:33.874Z,1005.91
2017-08-06T01:23:33.859Z,1005.92
2017-08-06T01:24:33.849Z,1005.95
2017-08-06T01:25:33.859Z,1005.93
2017-08-06T01:26:33.870Z,1005.94
2017-08-06T01:27:33.816Z,1005.98
2017-08-06T01:28:33.811Z,1005.96
2017-08-06T01:29:34.096Z,1005.99
2017-08-06T01:30:33.789Z,1005.98
2017-08-06T01:31:33.789Z,1005.98
2017-08-06T01:32:33.781Z,1005.99
2017-08-06T01:33:33.765Z,1006.00
2017-08-06T01:34:33.770Z,1005.98
2017-08-06T01:35:33.774Z,1006.01
2017-08-06T01:36:33.737Z,1006.01
2017-08-06T01:37:33.738Z,1006.05
2017-08-06T01:38:33.718Z,1006.05
2017-08-06T01:39:34.156Z,1006.09
2017-08-06T01:40:33.707Z,1006.05
2017-08-06T01:41:33.693Z,1006.12
2017-08-06T01:42:33.677Z,1006.10
2017-08-06T01:43:33.678Z,1006.08
2017-08-06T01:44:33.678Z,1006.10
2017-08-06T01:45:33.684Z,1006.09
2017-08-06T01:46:33.642Z,1006.12
2017-08-06T01:47:33.652Z,1006.11
2017-08-06T01:48:33.646Z,1006.13
2017-08-06T01:49:34.075Z,1006.10
2017-08-06T01:50:33.605Z,1006.13
2017-08-06T01:51:33.597Z,1006.11
2017-08-06T01:52:33.585Z,1006.12
2017-08-06T01:53:33.575Z,1006.09
2017-08-06T01:54:33.578Z,1006.11
2017-08-06T01:55:33.879Z,1006.14
2017-08-06T01:56:33.569Z,1006.20
2017-08-06T01:57:33.551Z,1006.17
2017-08-06T01:58:33.530Z,1006.18
2017-08-06T01:59:33.527Z,1006.16
2017-08-06T02:00:33.513Z,1006.21
2017-08-06T02:01:33.548Z,1006.25
2017-08-06T02:02:33.511Z,1006.21
2017-08-06T02:03:33.498Z,1006.22
2017-08-06T02:04:33.927Z,1006.25
2017-08-06T02:05:33.482Z,1006.21
2017-08-06T02:06:33.466Z,1006.21
2017-08-06T02:07:33.464Z,1006.24
2017-08-06T02:08:33.450Z,1006.23
2017-08-06T02:09:33.427Z,1006.22
2017-08-06T02:10:33.737Z,1006.21
2017-08-06T02:11:33.421Z,1006.23
2017-08-06T02:12:33.415Z,1006.25
2017-08-06T02:13:33.400Z,1006.26
2017-08-06T02:14:33.394Z,1006.26
2017-08-06T02:15:33.370Z,1006.29
2017-08-06T02:16:33.591Z,1006.28
2017-08-06T02:17:33.366Z,1006.30
2017-08-06T02:18:33.353Z,1006.28
2017-08-06T02:19:33.342Z,1006.28
2017-08-06T02:20:33.332Z,1006.28
2017-08-06T02:21:33.326Z,1006.29
2017-08-06T02:22:33.774Z,1006.28
2017-08-06T02:23:33.302Z,1006.29
2017-08-06T02:24:33.301Z,1006.33
2017-08-06T02:25:33.281Z,1006.34
2017-08-06T02:26:33.271Z,1006.37
2017-08-06T02:27:33.270Z,1006.33
2017-08-06T02:28:33.698Z,1006.31
2017-08-06T02:29:33.263Z,1006.33
2017-08-06T02:30:33.242Z,1006.36
2017-08-06T02:31:33.229Z,1006.39
2017-08-06T02:32:33.221Z,1006.38
2017-08-06T02:33:33.200Z,1006.37
2017-08-06T02:34:33.506Z,1006.39
2017-08-06T02:35:33.196Z,1006.41
2017-08-06T02:36:33.188Z,1006.40
2017-08-06T02:37:33.178Z,1006.41
2017-08-06T02:38:33.166Z,1006.39
2017-08-06T02:39:33.146Z,1006.38
2017-08-06T02:40:33.588Z,1006.39
2017-08-06T02:41:33.135Z,1006.40
2017-08-06T02:42:33.124Z,1006.43
2017-08-06T02:43:33.127Z,1006.43
2017-08-06T02:44:33.112Z,1006.44
2017-08-06T02:45:33.115Z,1006.45
2017-08-06T02:46:33.130Z,1006.44
2017-08-06T02:47:33.083Z,1006.45
2017-08-06T02:48:33.070Z,1006.45
2017-08-06T02:49:33.096Z,1006.51
2017-08-06T02:50:33.051Z,1006.44
2017-08-06T02:51:33.050Z,1006.48
2017-08-06T02:52:33.031Z,1006.50
2017-08-06T02:53:33.027Z,1006.50
2017-08-06T02:54:33.255Z,1006.54
2017-08-06T02:55:33.002Z,1006.55
2017-08-06T02:56:32.982Z,1006.56
2017-08-06T02:57:32.987Z,1006.56
2017-08-06T02:58:32.976Z,1006.56
2017-08-06T02:59:32.963Z,1006.60
2017-08-06T03:00:33.380Z,1006.60
2017-08-06T03:01:32.949Z,1006.64
2017-08-06T03:02:32.937Z,1006.63
2017-08-06T03:03:32.925Z,1006.64
2017-08-06T03:04:32.906Z,1006.63
2017-08-06T03:05:32.912Z,1006.63
2017-08-06T03:06:32.928Z,1006.64
2017-08-06T03:07:32.877Z,1006.63
2017-08-06T03:08:32.869Z,1006.66
2017-08-06T03:09:32.857Z,1006.64
2017-08-06T03:10:32.868Z,1006.65
2017-08-06T03:11:33.207Z,1006.64
2017-08-06T03:12:32.829Z,1006.64
2017-08-06T03:13:32.839Z,1006.64
2017-08-06T03:14:32.821Z,1006.63
2017-08-06T03:15:32.834Z,1006.67
2017-08-06T03:16:32.790Z,1006.67
2017-08-06T03:17:32.827Z,1006.71
2017-08-06T03:18:32.794Z,1006.70
2017-08-06T03:19:32.762Z,1006.72
2017-08-06T03:20:32.765Z,1006.73
2017-08-06T03:21:33.106Z,1006.72
2017-08-06T03:22:32.735Z,1006.74
2017-08-06T03:23:32.743Z,1006.76
2017-08-06T03:24:32.714Z,1006.76
2017-08-06T03:25:32.723Z,1006.76
2017-08-06T03:26:32.697Z,1006.78
2017-08-06T03:27:33.150Z,1006.78
2017-08-06T03:28:32.678Z,1006.84
2017-08-06T03:29:32.669Z,1006.77
2017-08-06T03:30:32.668Z,1006.80
2017-08-06T03:31:32.669Z,1006.85
2017-08-06T03:32:32.653Z,1006.87
2017-08-06T03:33:32.855Z,1006.86
2017-08-06T03:34:32.638Z,1006.81
2017-08-06T03:35:32.611Z,1006.83
2017-08-06T03:36:32.602Z,1006.87
2017-08-06T03:37:32.600Z,1006.83
2017-08-06T03:38:32.582Z,1006.88
2017-08-06T03:39:32.949Z,1006.90
2017-08-06T03:40:32.564Z,1006.88
2017-08-06T03:41:32.565Z,1006.90
2017-08-06T03:42:32.542Z,1006.87
2017-08-06T03:43:32.530Z,1006.89
2017-08-06T03:44:32.526Z,1006.93
2017-08-06T03:45:32.881Z,1006.93
2017-08-06T03:46:32.520Z,1006.91
2017-08-06T03:47:32.498Z,1006.89
2017-08-06T03:48:32.483Z,1006.89
2017-08-06T03:49:32.489Z,1006.88
2017-08-06T03:50:32.477Z,1006.91
2017-08-06T03:51:32.773Z,1006.90
2017-08-06T03:52:32.447Z,1006.90
2017-08-06T03:53:32.437Z,1006.93
2017-08-06T03:54:32.447Z,1006.94
2017-08-06T03:55:32.429Z,1006.92
2017-08-06T03:56:32.408Z,1006.94
2017-08-06T03:57:32.841Z,1006.97
2017-08-06T03:58:32.400Z,1006.95
2017-08-06T03:59:32.377Z,1006.96
2017-08-06T04:00:32.371Z,1006.95
2017-08-06T04:01:32.362Z,1006.98
2017-08-06T04:02:32.348Z,1006.92
2017-08-06T04:03:32.669Z,1007.02
2017-08-06T04:04:32.340Z,1007.01
2017-08-06T04:05:32.610Z,1007.03
2017-08-06T04:06:32.310Z,1007.02
2017-08-06T04:07:32.311Z,1007.08
2017-08-06T04:08:32.293Z,1007.09
2017-08-06T04:09:32.663Z,1007.13
2017-08-06T04:10:32.282Z,1007.12
2017-08-06T04:11:32.279Z,1007.12
2017-08-06T04:12:32.254Z,1007.12
2017-08-06T04:13:32.256Z,1007.15
2017-08-06T04:14:32.246Z,1007.16
2017-08-06T04:15:32.266Z,1007.19
2017-08-06T04:16:32.226Z,1007.19
2017-08-06T04:17:32.214Z,1007.17
2017-08-06T04:18:32.194Z,1007.20
2017-08-06T04:19:32.197Z,1007.22
2017-08-06T04:20:32.564Z,1007.19
2017-08-06T04:21:32.164Z,1007.24
2017-08-06T04:22:32.168Z,1007.21
2017-08-06T04:23:32.157Z,1007.21
2017-08-06T04:24:32.134Z,1007.23
2017-08-06T04:25:32.123Z,1007.27
2017-08-06T04:26:32.572Z,1007.23
2017-08-06T04:27:32.106Z,1007.27
2017-08-06T04:28:32.111Z,1007.26
2017-08-06T04:29:32.097Z,1007.28
2017-08-06T04:30:32.086Z,1007.29
2017-08-06T04:31:32.088Z,1007.25
2017-08-06T04:32:32.511Z,1007.31
2017-08-06T04:33:32.059Z,1007.30
2017-08-06T04:34:32.060Z,1007.31
2017-08-06T04:35:32.043Z,1007.29
2017-08-06T04:36:32.024Z,1007.31
2017-08-06T04:37:32.020Z,1007.30
2017-08-06T04:38:32.395Z,1007.30
2017-08-06T04:39:31.990Z,1007.32
2017-08-06T04:40:31.995Z,1007.29
2017-08-06T04:41:31.971Z,1007.29
2017-08-06T04:42:31.956Z,1007.35
2017-08-06T04:43:31.949Z,1007.34
2017-08-06T04:44:32.307Z,1007.34
2017-08-06T04:45:31.944Z,1007.35
2017-08-06T04:46:31.934Z,1007.36
2017-08-06T04:47:31.909Z,1007.37
2017-08-06T04:48:31.900Z,1007.36
2017-08-06T04:49:31.901Z,1007.35
2017-08-06T04:50:31.915Z,1007.34
2017-08-06T04:51:31.880Z,1007.37
2017-08-06T04:52:31.881Z,1007.38
2017-08-06T04:53:31.850Z,1007.41
2017-08-06T04:54:32.205Z,1007.40
2017-08-06T04:55:31.845Z,1007.37
2017-08-06T04:56:31.830Z,1007.42
2017-08-06T04:57:31.825Z,1007.47
2017-08-06T04:58:31.818Z,1007.47
2017-08-06T04:59:31.811Z,1007.47
2017-08-06T05:00:32.255Z,1007.49
2017-08-06T05:01:31.786Z,1007.48
2017-08-06T05:02:31.767Z,1007.49
2017-08-06T05:03:31.764Z,1007.49
2017-08-06T05:04:31.763Z,1007.55
2017-08-06T05:05:31.751Z,1007.51
2017-08-06T05:06:32.173Z,1007.55
2017-08-06T05:07:31.717Z,1007.52
2017-08-06T05:08:31.715Z,1007.56
2017-08-06T05:09:31.696Z,1007.60
2017-08-06T05:10:31.689Z,1007.58
2017-08-06T05:11:31.697Z,1007.62
2017-08-06T05:12:31.716Z,1007.58
2017-08-06T05:13:31.673Z,1007.63
2017-08-06T05:14:31.660Z,1007.60
2017-08-06T05:15:31.692Z,1007.60
2017-08-06T05:16:31.647Z,1007.59
2017-08-06T05:17:31.629Z,1007.60
2017-08-06T05:18:31.619Z,1007.63
2017-08-06T05:19:31.611Z,1007.61
2017-08-06T05:20:31.942Z,1007.64
2017-08-06T05:21:31.578Z,1007.61
2017-08-06T05:22:31.577Z,1007.62
2017-08-06T05:23:31.561Z,1007.62
2017-08-06T05:24:31.552Z,1007.62
2017-08-06T05:25:31.557Z,1007.63
2017-08-06T05:26:31.571Z,1007.65
2017-08-06T05:27:31.537Z,1007.63
2017-08-06T05:28:31.513Z,1007.65
2017-08-06T05:29:31.522Z,1007.67
2017-08-06T05:30:31.951Z,1007.67
2017-08-06T05:31:31.484Z,1007.74
2017-08-06T05:32:31.470Z,1007.74
2017-08-06T05:33:31.463Z,1007.78
2017-08-06T05:34:31.454Z,1007.77
2017-08-06T05:35:31.445Z,1007.76
2017-08-06T05:36:31.467Z,1007.81
2017-08-06T05:37:31.433Z,1007.77
2017-08-06T05:38:31.414Z,1007.86
2017-08-06T05:39:31.405Z,1007.85
2017-08-06T05:40:31.762Z,1007.86
2017-08-06T05:41:31.402Z,1007.89
2017-08-06T05:42:31.391Z,1007.91
2017-08-06T05:43:31.383Z,1007.92
2017-08-06T05:44:31.358Z,1007.93
2017-08-06T05:45:31.364Z,1007.96
2017-08-06T05:46:31.806Z,1008.01
2017-08-06T05:47:31.334Z,1008.04
2017-08-06T05:48:31.332Z,1008.00
2017-08-06T05:49:31.328Z,1008.00
2017-08-06T05:50:31.301Z,1008.02
2017-08-06T05:51:31.300Z,1008.04
2017-08-06T05:52:31.317Z,1008.05
2017-08-06T05:53:31.302Z,1008.08
2017-08-06T05:54:31.277Z,1008.09
2017-08-06T05:55:31.265Z,1008.06
2017-08-06T05:56:31.246Z,1008.05
2017-08-06T05:57:31.467Z,1008.05
2017-08-06T05:58:31.236Z,1008.05
2017-08-06T05:59:31.228Z,1008.08
2017-08-06T06:00:31.216Z,1008.12
2017-08-06T06:01:31.207Z,1008.10
2017-08-06T06:02:31.189Z,1008.11
2017-08-06T06:03:31.422Z,1008.10
2017-08-06T06:04:31.173Z,1008.14
2017-08-06T06:05:31.169Z,1008.15
2017-08-06T06:06:31.157Z,1008.16
2017-08-06T06:07:31.149Z,1008.17
2017-08-06T06:08:31.129Z,1008.21
2017-08-06T06:09:31.165Z,1008.25
2017-08-06T06:10:31.111Z,1008.30
2017-08-06T06:11:31.111Z,1008.30
2017-08-06T06:12:31.108Z,1008.28
2017-08-06T06:13:31.491Z,1008.29
2017-08-06T06:14:31.085Z,1008.28
2017-08-06T06:15:31.069Z,1008.28
2017-08-06T06:16:31.057Z,1008.28
2017-08-06T06:17:31.060Z,1008.34
2017-08-06T06:18:31.033Z,1008.35
2017-08-06T06:19:31.341Z,1008.39
2017-08-06T06:20:31.025Z,1008.33
2017-08-06T06:21:31.011Z,1008.37
2017-08-06T06:22:31.012Z,1008.37
2017-08-06T06:23:31.004Z,1008.44
2017-08-06T06:24:30.990Z,1008.48
2017-08-06T06:25:31.213Z,1008.50
2017-08-06T06:26:30.974Z,1008.49
2017-08-06T06:27:30.967Z,1008.50
2017-08-06T06:28:30.959Z,1008.51
2017-08-06T06:29:30.946Z,1008.51
2017-08-06T06:30:30.919Z,1008.48
2017-08-06T06:31:31.319Z,1008.42
2017-08-06T06:32:30.916Z,1008.49
2017-08-06T06:33:30.904Z,1008.48
2017-08-06T06:34:30.889Z,1008.47
2017-08-06T06:35:30.890Z,1008.49
2017-08-06T06:36:30.876Z,1008.48
2017-08-06T06:37:31.220Z,1008.48
2017-08-06T06:38:30.849Z,1008.49
2017-08-06T06:39:30.847Z,1008.45
2017-08-06T06:40:30.826Z,1008.51
2017-08-06T06:41:30.818Z,1008.53
2017-08-06T06:42:30.819Z,1008.59
2017-08-06T06:43:30.830Z,1008.62
2017-08-06T06:44:30.789Z,1008.60
2017-08-06T06:45:30.791Z,1008.60
2017-08-06T06:46:30.783Z,1008.59
2017-08-06T06:47:30.759Z,1008.59
2017-08-06T06:48:30.798Z,1008.62
2017-08-06T06:49:30.742Z,1008.63
2017-08-06T06:50:30.747Z,1008.65
2017-08-06T06:51:30.724Z,1008.63
2017-08-06T06:52:30.714Z,1008.65
2017-08-06T06:53:30.751Z,1008.67
2017-08-06T06:54:30.762Z,1008.67
2017-08-06T06:55:31.422Z,1008.70
2017-08-06T06:56:30.834Z,1008.72
2017-08-06T06:57:30.848Z,1008.71
2017-08-06T06:58:31.425Z,1008.71
2017-08-06T06:59:30.712Z,1008.73
2017-08-06T07:00:31.022Z,1008.74
2017-08-06T07:01:31.456Z,1008.74
2017-08-06T07:02:31.043Z,1008.76
2017-08-06T07:03:31.401Z,1008.78
2017-08-06T07:04:31.658Z,1008.78
2017-08-06T07:05:31.354Z,1008.77
2017-08-06T07:06:31.143Z,1008.78
2017-08-06T07:07:31.362Z,1008.83
2017-08-06T07:08:31.243Z,1008.81
2017-08-06T07:09:30.813Z,1008.83
2017-08-06T07:10:31.006Z,1008.84
2017-08-06T07:11:31.266Z,1008.79
2017-08-06T07:12:31.003Z,1008.81
2017-08-06T07:13:30.532Z,1008.81
2017-08-06T07:14:30.506Z,1008.84
2017-08-06T07:15:31.879Z,1008.83
2017-08-06T07:16:30.542Z,1008.87
2017-08-06T07:17:30.490Z,1008.87
2017-08-06T07:18:31.216Z,1008.92
2017-08-06T07:19:30.842Z,1008.89
2017-08-06T07:20:30.932Z,1008.90
2017-08-06T07:21:30.497Z,1008.92
2017-08-06T07:22:30.449Z,1008.91
2017-08-06T07:23:30.545Z,1008.87
2017-08-06T07:24:30.578Z,1008.91
2017-08-06T07:25:30.870Z,1008.90
2017-08-06T07:26:30.774Z,1008.91
2017-08-06T07:27:31.209Z,1008.95
2017-08-06T07:28:31.151Z,1008.96
2017-08-06T07:29:30.554Z,1008.97
2017-08-06T07:30:30.554Z,1008.97
2017-08-06T07:31:31.738Z,1008.94
2017-08-06T07:32:30.344Z,1008.95
2017-08-06T07:33:30.349Z,1008.96
2017-08-06T07:34:30.333Z,1008.94
2017-08-06T07:35:31.120Z,1008.97
2017-08-06T07:36:30.873Z,1008.96
2017-08-06T07:37:30.585Z,1008.99
2017-08-06T07:38:30.328Z,1008.99
2017-08-06T07:39:30.487Z,1008.98
2017-08-06T07:40:30.504Z,1009.02
2017-08-06T07:41:30.569Z,1009.01
2017-08-06T07:42:31.029Z,1009.02
2017-08-06T07:43:31.022Z,1009.02
2017-08-06T07:44:30.265Z,1009.05
2017-08-06T07:45:30.246Z,1009.00
2017-08-06T07:46:30.625Z,1009.01
2017-08-06T07:47:30.986Z,1009.01
2017-08-06T07:48:30.985Z,1009.06
2017-08-06T07:49:30.311Z,1009.05
2017-08-06T07:50:30.985Z,1009.04
2017-08-06T07:51:30.183Z,1009.06
2017-08-06T07:52:30.409Z,1009.06
2017-08-06T07:53:30.178Z,1009.06
2017-08-06T07:54:30.161Z,1009.08
2017-08-06T07:55:30.168Z,1009.07
2017-08-06T07:56:30.139Z,1009.05
2017-08-06T07:57:30.137Z,1009.08
2017-08-06T07:58:30.511Z,1009.09
2017-08-06T07:59:30.720Z,1009.09
2017-08-06T08:00:30.804Z,1009.10
2017-08-06T08:03:25.192Z,1009.07
2017-08-06T08:04:34.291Z,1009.11
2017-08-06T08:05:27.681Z,1009.08
2017-08-06T08:06:25.131Z,1009.12
2017-08-06T08:10:46.725Z,1009.15
2017-08-06T08:11:47.066Z,1009.17
2017-08-06T08:12:46.598Z,1009.16
2017-08-06T08:13:46.434Z,1009.14
2017-08-06T08:14:46.786Z,1009.15
2017-08-06T08:15:48.661Z,1009.18
2017-08-06T08:16:47.241Z,1009.19
2017-08-06T08:17:46.492Z,1009.18
2017-08-06T08:18:46.374Z,1009.24
2017-08-06T08:19:46.466Z,1009.19
2017-08-06T08:20:46.540Z,1009.20
2017-08-06T08:21:46.755Z,1009.24
2017-08-06T08:22:46.702Z,1009.23
2017-08-06T08:23:46.755Z,1009.26
2017-08-06T08:24:46.982Z,1009.23
2017-08-06T08:25:46.227Z,1009.28
2017-08-06T08:26:46.398Z,1009.25
2017-08-06T08:27:48.252Z,1009.27
2017-08-06T08:28:46.890Z,1009.29
2017-08-06T08:29:47.812Z,1009.30
2017-08-06T08:32:52.640Z,1009.34
2017-08-06T08:33:51.500Z,1009.34
2017-08-06T08:34:51.930Z,1009.32
2017-08-06T08:35:51.837Z,1009.38
2017-08-06T08:36:51.086Z,1009.40
2017-08-06T08:37:51.173Z,1009.45
2017-08-06T08:38:51.544Z,1009.41
2017-08-06T08:39:51.066Z,1009.39
2017-08-06T08:40:54.328Z,1009.41
2017-08-06T08:41:51.521Z,1009.38
2017-08-06T08:42:51.040Z,1009.37
2017-08-06T08:43:51.033Z,1009.41
2017-08-06T08:44:51.478Z,1009.38
2017-08-06T08:45:51.014Z,1009.37
2017-08-06T08:46:51.066Z,1009.43
2017-08-06T08:47:53.828Z,1009.37
2017-08-06T08:48:52.724Z,1009.39
2017-08-06T08:49:52.750Z,1009.39
2017-08-06T08:50:51.984Z,1009.42
2017-08-06T08:51:50.956Z,1009.48
2017-08-06T08:52:50.956Z,1009.49
2017-08-06T08:53:50.954Z,1009.51
2017-08-06T08:54:50.955Z,1009.52
2017-08-06T08:55:50.959Z,1009.56
2017-08-06T08:56:52.460Z,1009.51
2017-08-06T08:57:51.327Z,1009.52
2017-08-06T08:58:51.218Z,1009.36
2017-08-06T08:59:51.309Z,1009.48
2017-08-06T09:00:51.383Z,1009.47
2017-08-06T09:01:51.202Z,1009.52
2017-08-06T09:02:51.638Z,1009.55
2017-08-06T09:03:51.655Z,1009.57
2017-08-06T09:04:51.491Z,1009.51
2017-08-06T09:05:50.846Z,1009.68
2017-08-06T09:06:50.851Z,1009.63
2017-08-06T09:07:51.860Z,1009.63
2017-08-06T09:08:51.825Z,1009.67
2017-08-06T09:09:51.586Z,1009.62
2017-08-06T09:10:51.634Z,1009.62
2017-08-06T09:11:52.221Z,1009.59
2017-08-06T09:12:57.561Z,1009.68
2017-08-06T09:13:50.784Z,1009.66
2017-08-06T09:14:50.810Z,1009.58
2017-08-06T09:15:51.178Z,1009.64
2017-08-06T09:16:50.763Z,1009.63
2017-08-06T09:17:50.744Z,1009.59
2017-08-06T09:18:50.754Z,1009.59
2017-08-06T09:19:50.765Z,1009.62
2017-08-06T09:20:50.730Z,1009.62
2017-08-06T09:21:51.334Z,1009.67
2017-08-06T09:22:51.313Z,1009.64
2017-08-06T09:23:50.728Z,1009.56
2017-08-06T09:24:52.225Z,1009.60
2017-08-06T09:25:51.438Z,1009.59
2017-08-06T09:26:50.863Z,1009.63
2017-08-06T09:27:51.184Z,1009.67
2017-08-06T09:28:51.102Z,1009.59
2017-08-06T09:29:51.366Z,1009.56
2017-08-06T09:30:50.646Z,1009.62
2017-08-06T09:31:50.636Z,1009.58
2017-08-06T09:32:51.434Z,1009.65
2017-08-06T09:33:51.077Z,1009.56
2017-08-06T09:34:50.766Z,1009.52
2017-08-06T09:35:50.808Z,1009.52
2017-08-06T09:36:50.615Z,1009.47
2017-08-06T09:37:53.348Z,1009.54
2017-08-06T09:38:51.449Z,1009.51
2017-08-06T09:39:52.174Z,1009.62
2017-08-06T09:40:51.252Z,1009.50
2017-08-06T09:41:50.575Z,1009.60
2017-08-06T09:42:50.958Z,1009.60
2017-08-06T09:43:50.603Z,1009.53
2017-08-06T09:44:51.091Z,1009.48
2017-08-06T09:45:51.183Z,1009.56
2017-08-06T09:46:50.524Z,1009.59
2017-08-06T09:47:51.299Z,1009.49
2017-08-06T09:48:50.755Z,1009.59
2017-08-06T09:49:50.514Z,1009.60
2017-08-06T09:50:50.520Z,1009.57
2017-08-06T09:51:50.726Z,1009.57
2017-08-06T09:52:51.172Z,1009.59
2017-08-06T09:53:50.482Z,1009.58
2017-08-06T09:54:50.476Z,1009.55
2017-08-06T09:55:50.464Z,1009.50
2017-08-06T09:56:51.259Z,1009.56
2017-08-06T09:57:50.917Z,1009.52
2017-08-06T09:58:50.458Z,1009.60
2017-08-06T09:59:50.944Z,1009.55
2017-08-06T10:00:50.427Z,1009.58
2017-08-06T10:01:50.450Z,1009.54
2017-08-06T10:02:50.412Z,1009.55
2017-08-06T10:03:50.813Z,1009.49
2017-08-06T10:04:50.406Z,1009.56
2017-08-06T10:05:50.403Z,1009.49
2017-08-06T10:06:50.383Z,1009.51
2017-08-06T10:07:50.379Z,1009.49
2017-08-06T10:08:50.387Z,1009.49
2017-08-06T10:09:50.409Z,1009.56
2017-08-06T10:10:50.362Z,1009.63
2017-08-06T10:11:50.671Z,1009.50
2017-08-06T10:12:50.361Z,1009.50
2017-08-06T10:13:50.348Z,1009.50
2017-08-06T10:14:50.347Z,1009.52
2017-08-06T10:15:50.350Z,1009.48
2017-08-06T10:16:50.337Z,1009.53
2017-08-06T10:17:50.709Z,1009.48
2017-08-06T10:18:50.307Z,1009.48
2017-08-06T10:19:50.312Z,1009.56
2017-08-06T10:20:50.297Z,1009.50
2017-08-06T10:21:50.302Z,1009.50
2017-08-06T10:22:50.305Z,1009.45
2017-08-06T10:23:50.727Z,1009.46
2017-08-06T10:24:50.278Z,1009.55
2017-08-06T10:25:50.275Z,1009.45
2017-08-06T10:26:50.264Z,1009.46
2017-08-06T10:27:50.253Z,1009.43
2017-08-06T10:28:50.243Z,1009.44
2017-08-06T10:29:50.574Z,1009.57
2017-08-06T10:30:50.248Z,1009.56
2017-08-06T10:31:50.233Z,1009.51
2017-08-06T10:32:50.228Z,1009.59
2017-08-06T10:33:50.217Z,1009.47
2017-08-06T10:34:50.208Z,1009.45
2017-08-06T10:35:50.531Z,1009.46
2017-08-06T10:36:50.195Z,1009.42
2017-08-06T10:37:50.194Z,1009.47
2017-08-06T10:38:50.197Z,1009.42
2017-08-06T10:39:50.179Z,1009.42
2017-08-06T10:40:50.175Z,1009.49
2017-08-06T10:41:50.395Z,1009.54
2017-08-06T10:42:50.163Z,1009.42
2017-08-06T10:43:50.170Z,1009.36
2017-08-06T10:44:50.153Z,1009.37
2017-08-06T10:45:50.169Z,1009.25
2017-08-06T10:46:50.153Z,1009.26
2017-08-06T10:47:50.575Z,1009.29
2017-08-06T10:48:50.145Z,1009.37
2017-08-06T10:49:50.126Z,1009.30
2017-08-06T10:50:50.128Z,1009.34
2017-08-06T10:51:50.112Z,1009.41
2017-08-06T10:52:50.125Z,1009.36
2017-08-06T10:53:50.138Z,1009.39
2017-08-06T10:54:50.105Z,1009.36
2017-08-06T10:55:50.100Z,1009.39
2017-08-06T10:56:50.087Z,1009.34
2017-08-06T10:57:50.414Z,1009.38
2017-08-06T10:58:50.095Z,1009.36
2017-08-06T10:59:50.061Z,1009.37
2017-08-06T11:00:50.070Z,1009.38
2017-08-06T11:01:50.068Z,1009.37
2017-08-06T11:02:50.066Z,1009.40
2017-08-06T11:03:50.073Z,1009.37
2017-08-06T11:04:50.032Z,1009.37
2017-08-06T11:05:50.042Z,1009.38
2017-08-06T11:06:50.021Z,1009.47
2017-08-06T11:07:50.046Z,1009.33
2017-08-06T11:08:50.012Z,1009.46
2017-08-06T11:09:50.006Z,1009.37
2017-08-06T11:11:11.017Z,1009.38
2017-08-06T11:11:50.000Z,1009.41
2017-08-06T11:12:50.337Z,1009.34
2017-08-06T11:13:49.978Z,1009.33
2017-08-06T11:14:49.972Z,1009.32
2017-08-06T11:15:49.969Z,1009.25
2017-08-06T11:16:49.964Z,1009.32
2017-08-06T11:17:49.971Z,1009.28
2017-08-06T11:18:50.329Z,1009.35
2017-08-06T11:19:49.949Z,1009.26
2017-08-06T11:20:49.934Z,1009.24
2017-08-06T11:21:49.934Z,1009.40
2017-08-06T11:22:49.924Z,1009.23
2017-08-06T11:23:49.928Z,1009.36
2017-08-06T11:24:49.966Z,1009.39
2017-08-06T11:25:49.917Z,1009.40
2017-08-06T11:26:49.901Z,1009.37
2017-08-06T11:27:49.895Z,1009.33
2017-08-06T11:28:49.923Z,1009.23
2017-08-06T11:29:49.887Z,1009.35
2017-08-06T11:30:49.888Z,1009.27
2017-08-06T11:31:49.885Z,1009.31
2017-08-06T11:32:49.885Z,1009.32
2017-08-06T11:33:50.343Z,1009.19
2017-08-06T11:34:49.863Z,1009.24
2017-08-06T11:35:49.854Z,1009.38
2017-08-06T11:36:49.853Z,1009.29
2017-08-06T11:37:49.854Z,1009.38
2017-08-06T11:38:49.861Z,1009.63
2017-08-06T11:39:49.894Z,1009.55
2017-08-06T11:40:49.835Z,1009.60
2017-08-06T11:41:49.832Z,1009.68
2017-08-06T11:42:49.826Z,1009.64
2017-08-06T11:43:50.281Z,1009.70
2017-08-06T11:44:49.832Z,1009.78
2017-08-06T11:45:49.814Z,1009.70
2017-08-06T11:46:49.826Z,1009.72
2017-08-06T11:47:49.816Z,1009.75
2017-08-06T11:48:49.816Z,1009.62
2017-08-06T11:49:49.827Z,1009.84
2017-08-06T11:50:49.794Z,1009.76
2017-08-06T11:51:49.797Z,1009.60
2017-08-06T11:52:49.794Z,1009.35
2017-08-06T11:53:50.275Z,1009.33
2017-08-06T11:54:49.782Z,1009.37
2017-08-06T11:55:49.782Z,1009.30
2017-08-06T11:56:49.777Z,1009.30
2017-08-06T11:57:49.788Z,1009.28
2017-08-06T11:58:49.778Z,1009.16
2017-08-06T11:59:50.247Z,1009.67
2017-08-06T12:00:49.764Z,1009.76
2017-08-06T12:01:49.762Z,1009.69
2017-08-06T12:02:49.768Z,1009.67
2017-08-06T12:03:49.768Z,1009.64
2017-08-06T12:04:49.763Z,1009.49
2017-08-06T12:05:49.788Z,1009.73
2017-08-06T12:06:49.747Z,1009.66
2017-08-06T12:07:49.745Z,1009.38
2017-08-06T12:08:49.758Z,1009.42
2017-08-06T12:09:49.753Z,1009.41
2017-08-06T12:10:50.160Z,1009.38
2017-08-06T12:11:49.737Z,1009.35
2017-08-06T12:12:49.746Z,1009.48